createdAt,value
2018-06-01T00:01:33.650Z,22.20
2018-06-01T00:04:34.917Z,21.90
2018-06-01T00:07:36.358Z,21.90
2018-06-01T00:10:37.598Z,21.90
2018-06-01T00:13:39.593Z,22.10
2018-06-01T00:16:40.843Z,22.10
2018-06-01T00:19:42.856Z,22.20
2018-06-01T00:22:44.099Z,22.20
2018-06-01T00:25:45.351Z,22.10
2018-06-01T00:28:48.874Z,22.00
2018-06-01T00:31:50.525Z,22.00
2018-06-01T00:34:52.561Z,22.10
2018-06-01T00:37:53.997Z,22.10
2018-06-01T00:40:55.237Z,21.90
2018-06-01T00:43:57.805Z,22.00
2018-06-01T00:47:02.140Z,22.00
2018-06-01T00:50:03.426Z,21.90
2018-06-01T00:53:05.983Z,21.90
2018-06-01T00:56:07.839Z,21.90
2018-06-01T00:59:09.218Z,21.80
2018-06-01T01:02:10.474Z,21.90
2018-06-01T01:05:11.785Z,22.00
2018-06-01T01:08:13.042Z,21.90
2018-06-01T01:11:14.366Z,21.90
2018-06-01T01:14:15.630Z,21.90
2018-06-01T01:17:17.814Z,21.80
2018-06-01T01:20:19.080Z,21.90
2018-06-01T01:23:20.322Z,21.80
2018-06-01T01:26:21.660Z,21.80
2018-06-01T01:29:23.699Z,21.80
2018-06-01T01:32:24.985Z,21.70
2018-06-01T01:35:26.646Z,21.80
2018-06-01T01:38:27.945Z,21.80
2018-06-01T01:41:29.906Z,21.60
2018-06-01T01:44:31.173Z,21.60
2018-06-01T01:47:32.431Z,21.70
2018-06-01T01:50:33.681Z,21.60
2018-06-01T01:53:34.938Z,21.70
2018-06-01T01:56:36.449Z,21.70
2018-06-01T01:59:38.447Z,21.70
2018-06-01T02:02:39.674Z,21.60
2018-06-01T02:05:40.965Z,21.60
2018-06-01T02:08:42.947Z,21.40
2018-06-01T02:11:44.426Z,21.40
2018-06-01T02:14:45.737Z,21.50
2018-06-01T02:17:47.652Z,21.50
2018-06-01T02:20:49.636Z,21.60
2018-06-01T02:23:51.604Z,21.60
2018-06-01T02:26:52.858Z,21.60
2018-06-01T02:29:54.771Z,21.60
2018-06-01T02:32:59.483Z,21.60
2018-06-01T02:36:01.681Z,21.60
2018-06-01T02:39:02.967Z,21.50
2018-06-01T02:42:04.445Z,21.60
2018-06-01T02:45:05.695Z,21.60
2018-06-01T02:48:06.972Z,21.50
2018-06-01T02:51:08.196Z,21.50
2018-06-01T02:54:09.526Z,21.40
2018-06-01T02:57:10.771Z,21.50
2018-06-01T03:00:12.043Z,21.50
2018-06-01T03:03:13.271Z,21.40
2018-06-01T03:06:14.580Z,21.40
2018-06-01T03:09:15.846Z,21.40
2018-06-01T03:12:17.083Z,21.40
2018-06-01T03:15:18.356Z,21.40
2018-06-01T03:18:19.609Z,21.30
2018-06-01T03:21:20.901Z,21.30
2018-06-01T03:24:22.228Z,21.30
2018-06-01T03:27:23.485Z,21.40
2018-06-01T03:30:24.798Z,21.50
2018-06-01T03:33:26.045Z,21.40
2018-06-01T03:36:28.113Z,21.30
2018-06-01T03:39:29.382Z,21.30
2018-06-01T03:42:30.654Z,21.30
2018-06-01T03:45:31.937Z,21.30
2018-06-01T03:48:33.195Z,21.20
2018-06-01T03:51:34.464Z,21.30
2018-06-01T03:54:35.713Z,21.30
2018-06-01T03:57:36.969Z,21.30
2018-06-01T04:00:38.245Z,21.30
2018-06-01T04:03:39.481Z,21.30
2018-06-01T04:06:40.782Z,21.40
2018-06-01T04:09:42.020Z,21.40
2018-06-01T04:12:43.266Z,21.40
2018-06-01T04:15:45.935Z,21.40
2018-06-01T04:18:47.456Z,21.40
2018-06-01T04:21:49.350Z,21.30
2018-06-01T04:24:51.900Z,21.40
2018-06-01T04:27:53.876Z,21.40
2018-06-01T04:30:55.714Z,21.40
2018-06-01T04:33:58.207Z,21.50
2018-06-01T04:37:00.826Z,21.60
2018-06-01T04:40:02.646Z,21.60
2018-06-01T04:43:04.777Z,21.40
2018-06-01T04:46:06.593Z,21.50
2018-06-01T04:49:13.465Z,21.50
2018-06-01T04:52:17.027Z,21.40
2018-06-01T04:55:18.832Z,21.30
2018-06-01T04:58:20.597Z,21.40
2018-06-01T05:01:23.268Z,21.30
2018-06-01T05:04:25.138Z,21.30
2018-06-01T05:07:27.036Z,21.10
2018-06-01T05:10:29.691Z,21.20
2018-06-01T05:13:31.547Z,21.20
2018-06-01T05:16:33.411Z,21.40
2018-06-01T05:19:35.913Z,21.50
2018-06-01T05:22:37.732Z,21.50
2018-06-01T05:25:39.451Z,21.70
2018-06-01T05:28:42.052Z,21.80
2018-06-01T05:31:43.807Z,21.80
2018-06-01T05:34:46.335Z,22.00
2018-06-01T05:37:48.125Z,22.00
2018-06-01T05:40:49.939Z,22.10
2018-06-01T05:43:51.717Z,22.10
2018-06-01T05:46:53.697Z,22.20
2018-06-01T05:49:55.999Z,22.20
2018-06-01T05:52:57.838Z,22.20
2018-06-01T05:55:59.608Z,22.10
2018-06-01T05:59:01.379Z,22.00
2018-06-01T06:02:03.924Z,22.00
2018-06-01T06:05:05.744Z,21.80
2018-06-01T06:08:07.537Z,21.90
2018-06-01T06:11:09.267Z,22.00
2018-06-01T06:14:11.041Z,22.00
2018-06-01T06:17:12.805Z,22.00
2018-06-01T06:20:14.608Z,22.00
2018-06-01T06:23:16.326Z,22.10
2018-06-01T06:26:18.103Z,22.20
2018-06-01T06:29:20.401Z,22.10
2018-06-01T06:32:22.951Z,22.00
2018-06-01T06:35:24.788Z,22.00
2018-06-01T06:38:26.585Z,22.10
2018-06-01T06:41:28.327Z,22.10
2018-06-01T06:44:30.863Z,22.20
2018-06-01T06:47:32.642Z,22.20
2018-06-01T06:50:34.393Z,22.20
2018-06-01T06:53:36.153Z,22.30
2018-06-01T06:56:38.658Z,22.30
2018-06-01T06:59:40.522Z,22.30
2018-06-01T07:02:42.331Z,22.30
2018-06-01T07:05:44.129Z,22.30
2018-06-01T07:08:45.836Z,22.30
2018-06-01T07:11:48.354Z,22.30
2018-06-01T07:14:50.116Z,22.30
2018-06-01T07:17:51.927Z,22.30
2018-06-01T07:20:53.719Z,22.20
2018-06-01T07:23:55.496Z,22.30
2018-06-01T07:26:57.232Z,22.30
2018-06-01T07:29:58.994Z,22.30
2018-06-01T07:33:00.732Z,22.30
2018-06-01T07:36:02.522Z,22.20
2018-06-01T07:39:05.498Z,22.20
2018-06-01T07:42:07.265Z,22.20
2018-06-01T07:45:09.020Z,22.20
2018-06-01T07:48:10.998Z,22.20
2018-06-01T07:51:14.741Z,22.10
2018-06-01T07:54:16.524Z,22.10
2018-06-01T07:57:18.278Z,22.00
2018-06-01T08:00:20.156Z,22.00
2018-06-01T08:03:21.906Z,22.00
2018-06-01T08:06:24.413Z,22.00
2018-06-01T08:09:26.167Z,22.00
2018-06-01T08:12:28.627Z,21.90
2018-06-01T08:15:30.405Z,21.90
2018-06-01T08:18:32.107Z,21.80
2018-06-01T08:21:33.855Z,21.60
2018-06-01T08:24:35.580Z,21.60
2018-06-01T08:27:37.374Z,21.60
2018-06-01T08:30:39.122Z,21.60
2018-06-01T08:33:40.919Z,21.70
2018-06-01T08:36:42.669Z,21.50
2018-06-01T08:39:44.384Z,21.50
2018-06-01T08:42:46.166Z,21.50
2018-06-01T08:45:47.988Z,21.60
2018-06-01T08:48:49.835Z,21.60
2018-06-01T08:51:51.941Z,21.50
2018-06-01T08:54:54.454Z,21.60
2018-06-01T08:57:56.226Z,21.60
2018-06-01T09:00:58.043Z,21.60
2018-06-01T09:03:59.762Z,21.60
2018-06-01T09:07:01.595Z,21.60
2018-06-01T09:10:03.384Z,21.50
2018-06-01T09:13:06.755Z,21.60
2018-06-01T09:16:08.521Z,21.60
2018-06-01T09:19:10.192Z,21.60
2018-06-01T09:22:11.968Z,21.60
2018-06-01T09:25:13.810Z,21.60
2018-06-01T09:28:16.312Z,21.60
2018-06-01T09:31:18.635Z,21.60
2018-06-01T09:34:21.291Z,21.60
2018-06-01T09:37:23.112Z,21.60
2018-06-01T09:40:24.847Z,21.60
2018-06-01T09:43:27.934Z,21.70
2018-06-01T09:46:29.325Z,21.60
2018-06-01T09:49:30.579Z,21.60
2018-06-01T09:52:31.835Z,21.40
2018-06-01T09:55:33.158Z,21.40
2018-06-01T09:58:34.390Z,21.50
2018-06-01T10:01:36.400Z,21.70
2018-06-01T10:04:37.637Z,21.70
2018-06-01T10:07:39.608Z,21.60
2018-06-01T10:10:40.851Z,21.60
2018-06-01T10:13:42.069Z,21.70
2018-06-01T10:16:43.362Z,21.60
2018-06-01T10:19:44.577Z,21.60
2018-06-01T10:22:46.562Z,21.50
2018-06-01T10:25:48.533Z,21.50
2018-06-01T10:28:50.524Z,21.40
2018-06-01T10:31:51.776Z,21.40
2018-06-01T10:34:53.742Z,21.50
2018-06-01T10:37:55.041Z,21.40
2018-06-01T10:40:56.284Z,21.50
2018-06-01T10:43:58.249Z,21.50
2018-06-01T10:46:59.502Z,21.50
2018-06-01T10:50:00.745Z,21.40
2018-06-01T10:53:02.012Z,21.20
2018-06-01T10:56:03.234Z,21.30
2018-06-01T10:59:04.467Z,21.60
2018-06-01T11:02:05.712Z,21.90
2018-06-01T11:05:06.948Z,22.10
2018-06-01T11:08:08.945Z,22.40
2018-06-01T11:11:10.167Z,22.40
2018-06-01T11:14:11.409Z,22.70
2018-06-01T11:17:13.386Z,22.60
2018-06-01T11:20:14.691Z,22.60
2018-06-01T11:23:15.915Z,22.60
2018-06-01T11:26:17.880Z,22.60
2018-06-01T11:29:19.110Z,22.50
2018-06-01T11:32:20.367Z,22.80
2018-06-01T11:35:21.605Z,22.80
2018-06-01T11:38:22.856Z,22.90
2018-06-01T11:41:24.823Z,22.90
2018-06-01T11:44:26.794Z,22.80
2018-06-01T11:47:28.062Z,22.80
2018-06-01T11:50:30.060Z,22.50
2018-06-01T11:53:31.309Z,22.40
2018-06-01T11:56:33.269Z,22.40
2018-06-01T11:59:34.552Z,22.30
2018-06-01T12:02:35.833Z,22.30
2018-06-01T12:05:37.077Z,22.30
2018-06-01T12:08:38.336Z,22.40
2018-06-01T12:11:40.349Z,22.30
2018-06-01T12:14:41.573Z,22.30
2018-06-01T12:17:42.756Z,22.20
2018-06-01T12:20:43.934Z,22.20
2018-06-01T12:23:45.163Z,22.10
2018-06-01T12:26:46.401Z,22.10
2018-06-01T12:29:48.366Z,22.10
2018-06-01T12:32:49.633Z,22.10
2018-06-01T12:35:50.862Z,22.10
2018-06-01T12:38:52.128Z,22.10
2018-06-01T12:41:53.365Z,22.10
2018-06-01T12:44:55.322Z,22.00
2018-06-01T12:47:56.596Z,22.00
2018-06-01T12:50:57.816Z,22.00
2018-06-01T12:53:59.099Z,22.10
2018-06-01T12:57:00.318Z,22.20
2018-06-01T13:00:01.577Z,22.40
2018-06-01T13:03:02.860Z,22.30
2018-06-01T13:06:04.122Z,22.30
2018-06-01T13:09:05.409Z,22.30
2018-06-01T13:12:06.739Z,22.40
2018-06-01T13:15:08.005Z,22.50
2018-06-01T13:18:09.258Z,22.70
2018-06-01T13:21:10.494Z,23.00
2018-06-01T13:24:11.843Z,23.20
2018-06-01T13:27:13.109Z,23.20
2018-06-01T13:30:14.365Z,23.30
2018-06-01T13:33:15.714Z,23.20
2018-06-01T13:36:16.958Z,23.40
2018-06-01T13:39:18.227Z,23.60
2018-06-01T13:42:19.708Z,23.70
2018-06-01T13:45:21.033Z,23.60
2018-06-01T13:48:22.294Z,23.60
2018-06-01T13:51:24.270Z,23.50
2018-06-01T13:54:26.241Z,23.50
2018-06-01T13:57:28.273Z,23.30
2018-06-01T14:00:29.594Z,23.30
2018-06-01T14:03:30.803Z,23.20
2018-06-01T14:06:32.031Z,23.10
2018-06-01T14:09:33.294Z,22.90
2018-06-01T14:12:34.538Z,22.70
2018-06-01T14:15:36.520Z,22.70
2018-06-01T14:18:38.480Z,22.80
2018-06-01T14:21:39.727Z,22.70
2018-06-01T14:24:41.132Z,23.00
2018-06-01T14:27:43.120Z,23.40
2018-06-01T14:30:45.091Z,23.40
2018-06-01T14:33:47.093Z,23.40
2018-06-01T14:36:48.351Z,23.30
2018-06-01T14:39:49.599Z,23.40
2018-06-01T14:42:51.574Z,23.80
2018-06-01T14:45:53.556Z,23.60
2018-06-01T14:48:55.550Z,23.40
2018-06-01T14:51:56.805Z,23.40
2018-06-01T14:54:58.775Z,23.20
2018-06-01T14:58:00.766Z,23.30
2018-06-01T15:01:02.774Z,23.40
2018-06-01T15:04:04.039Z,23.40
2018-06-01T15:07:05.254Z,23.50
2018-06-01T15:10:06.560Z,23.50
2018-06-01T15:13:07.850Z,23.50
2018-06-01T15:16:09.108Z,23.60
2018-06-01T15:19:10.381Z,23.80
2018-06-01T15:22:13.032Z,23.80
2018-06-01T15:25:14.330Z,24.00
2018-06-01T15:28:15.582Z,24.30
2018-06-01T15:31:16.828Z,24.20
2018-06-01T15:34:18.070Z,23.80
2018-06-01T15:37:20.059Z,23.30
2018-06-01T15:40:22.043Z,23.10
2018-06-01T15:43:24.058Z,23.00
2018-06-01T15:46:25.345Z,23.00
2018-06-01T15:49:26.598Z,22.90
2018-06-01T15:52:27.892Z,22.80
2018-06-01T15:55:29.904Z,22.50
2018-06-01T15:58:31.153Z,22.50
2018-06-01T16:01:33.160Z,22.40
2018-06-01T16:04:34.413Z,22.40
2018-06-01T16:07:36.125Z,22.40
2018-06-01T16:10:38.044Z,22.50
2018-06-01T16:13:40.064Z,22.20
2018-06-01T16:16:41.310Z,22.20
2018-06-01T16:19:42.577Z,22.20
2018-06-01T16:22:43.838Z,22.20
2018-06-01T16:25:45.120Z,22.20
2018-06-01T16:28:46.383Z,22.20
2018-06-01T16:31:47.637Z,22.10
2018-06-01T16:34:48.881Z,22.00
2018-06-01T16:37:50.150Z,22.00
2018-06-01T16:40:51.416Z,22.00
2018-06-01T16:43:52.662Z,22.00
2018-06-01T16:46:54.623Z,21.90
2018-06-01T16:49:55.905Z,21.90
2018-06-01T16:52:57.876Z,21.90
2018-06-01T16:55:59.874Z,21.70
2018-06-01T16:59:01.101Z,21.60
2018-06-01T17:02:02.347Z,21.60
2018-06-01T17:05:03.640Z,21.40
2018-06-01T17:08:05.685Z,21.30
2018-06-01T17:11:06.918Z,21.20
2018-06-01T17:14:08.148Z,21.30
2018-06-01T17:17:10.128Z,21.20
2018-06-01T17:20:12.113Z,21.30
2018-06-01T17:23:14.094Z,21.30
2018-06-01T17:26:16.133Z,21.30
2018-06-01T17:29:17.422Z,21.20
2018-06-01T17:32:18.665Z,21.10
2018-06-01T17:35:21.315Z,21.10
2018-06-01T17:38:22.585Z,21.10
2018-06-01T17:41:23.881Z,21.10
2018-06-01T17:44:25.091Z,21.00
2018-06-01T17:47:27.125Z,20.90
2018-06-01T17:50:28.381Z,20.90
2018-06-01T17:53:29.636Z,20.90
2018-06-01T17:56:31.125Z,20.90
2018-06-01T17:59:32.378Z,20.90
2018-06-01T18:02:33.647Z,20.90
2018-06-01T18:05:35.627Z,20.60
2018-06-01T18:08:36.912Z,20.70
2018-06-01T18:11:38.145Z,20.70
2018-06-01T18:14:39.405Z,20.60
2018-06-01T18:17:40.637Z,20.70
2018-06-01T18:20:41.874Z,20.70
2018-06-01T18:23:43.129Z,20.60
2018-06-01T18:26:45.143Z,20.30
2018-06-01T18:29:46.387Z,20.30
2018-06-01T18:32:48.376Z,20.40
2018-06-01T18:35:50.332Z,20.50
2018-06-01T18:38:51.677Z,20.50
2018-06-01T18:41:52.937Z,20.50
2018-06-01T18:44:54.241Z,20.60
2018-06-01T18:47:56.226Z,20.50
2018-06-01T18:50:58.253Z,20.40
2018-06-01T18:53:59.518Z,20.40
2018-06-01T18:57:00.807Z,20.50
2018-06-01T19:00:02.145Z,20.60
2018-06-01T19:03:03.423Z,20.70
2018-06-01T19:06:04.829Z,20.50
2018-06-01T19:09:06.834Z,20.40
2018-06-01T19:12:08.041Z,20.30
2018-06-01T19:15:09.275Z,20.30
2018-06-01T19:18:10.507Z,20.30
2018-06-01T19:21:12.478Z,20.40
2018-06-01T19:24:14.460Z,20.40
2018-06-01T19:27:16.429Z,20.10
2018-06-01T19:30:17.696Z,20.10
2018-06-01T19:33:19.657Z,20.10
2018-06-01T19:36:20.952Z,20.10
2018-06-01T19:39:22.940Z,20.20
2018-06-01T19:42:24.242Z,20.20
2018-06-01T19:45:25.986Z,20.40
2018-06-01T19:48:27.745Z,20.40
2018-06-01T19:51:29.837Z,20.10
2018-06-01T19:54:31.606Z,20.00
2018-06-01T19:57:34.077Z,19.90
2018-06-01T20:00:35.473Z,20.10
2018-06-01T20:03:37.020Z,20.20
2018-06-01T20:06:39.556Z,20.40
2018-06-01T20:09:40.874Z,20.30
2018-06-01T20:12:42.850Z,20.20
2018-06-01T20:15:44.190Z,20.20
2018-06-01T20:18:45.476Z,20.10
2018-06-01T20:21:46.719Z,19.80
2018-06-01T20:24:48.799Z,19.80
2018-06-01T20:27:50.071Z,19.70
2018-06-01T20:30:51.463Z,19.70
2018-06-01T20:33:53.776Z,19.70
2018-06-01T20:36:55.032Z,19.60
2018-06-01T20:39:56.304Z,19.90
2018-06-01T20:42:57.729Z,19.90
2018-06-01T20:45:59.832Z,19.90
2018-06-01T20:49:02.724Z,19.70
2018-06-01T20:52:05.015Z,19.70
2018-06-01T20:55:06.250Z,19.60
2018-06-01T20:58:07.473Z,19.70
2018-06-01T21:01:08.722Z,19.70
2018-06-01T21:04:09.989Z,19.70
2018-06-01T21:07:11.321Z,19.70
2018-06-01T21:10:13.318Z,19.80
2018-06-01T21:13:14.585Z,19.80
2018-06-01T21:16:16.586Z,19.80
2018-06-01T21:19:17.874Z,19.80
2018-06-01T21:22:19.099Z,19.90
2018-06-01T21:25:20.369Z,19.90
2018-06-01T21:28:21.617Z,20.00
2018-06-01T21:31:23.640Z,19.60
2018-06-01T21:34:25.034Z,19.60
2018-06-01T21:37:26.280Z,19.70
2018-06-01T21:40:27.513Z,19.70
2018-06-01T21:43:28.753Z,19.70
2018-06-01T21:46:30.723Z,19.80
2018-06-01T21:49:32.686Z,19.80
2018-06-01T21:52:33.919Z,19.80
2018-06-01T21:55:35.259Z,19.80
2018-06-01T21:58:36.578Z,19.80
2018-06-01T22:01:37.849Z,20.00
2018-06-01T22:04:39.096Z,19.90
2018-06-01T22:07:40.373Z,19.70
2018-06-01T22:10:41.762Z,19.70
2018-06-01T22:13:43.051Z,19.70
2018-06-01T22:16:44.319Z,19.90
2018-06-01T22:19:45.662Z,19.70
2018-06-01T22:22:46.911Z,19.60
2018-06-01T22:25:48.877Z,19.50
2018-06-01T22:28:50.140Z,19.50
2018-06-01T22:31:51.491Z,19.50
2018-06-01T22:34:52.705Z,19.30
2018-06-01T22:37:53.957Z,19.30
2018-06-01T22:40:56.130Z,19.50
2018-06-01T22:43:58.147Z,19.50
2018-06-01T22:46:59.713Z,19.50
2018-06-01T22:50:00.962Z,19.60
2018-06-01T22:58:25.018Z,19.40
2018-06-01T23:01:26.259Z,19.40
2018-06-01T23:04:28.310Z,19.30
2018-06-01T23:07:29.597Z,19.20
2018-06-01T23:10:31.801Z,19.30
2018-06-01T23:13:33.067Z,19.40
2018-06-01T23:16:35.097Z,19.30
2018-06-01T23:19:36.330Z,19.30
2018-06-01T23:22:37.546Z,19.40
2018-06-01T23:25:38.800Z,19.50
2018-06-01T23:28:40.039Z,19.40
2018-06-01T23:31:41.254Z,19.30
2018-06-01T23:34:43.256Z,19.40
2018-06-01T23:37:44.491Z,19.40
2018-06-01T23:40:46.446Z,19.30
2018-06-01T23:43:47.688Z,19.30
2018-06-01T23:46:48.926Z,19.40
2018-06-01T23:49:50.161Z,19.30
2018-06-01T23:52:52.172Z,19.30
2018-06-01T23:55:53.465Z,19.30
2018-06-01T23:58:54.719Z,19.20
